Portada
METAR-TAF:

METAR-TAF

Aeropuertos :

Mendoza, Argentina

Aeropuerto Internacional Gobernador Francisco Gabrielli

latitud: 32-50S, longitud: 068-47W, altitud: 705 m

Observación

El informe se hizo hace 59 minutos, a las 01:00 UTC
Viento 4 kt del sur
Temperatura 10°C
Humedad 76%
Presión 1016 hPa

METAR: SAME 240100Z 18004KT CAV0K 10/06 Q1016

Hora: 22:59 (01:59 UTC)

Pronóstico

El informe se hizo hace 2 horas y 59 minutos, a las 23:00 UTC
Pronóstico válido del 24 a las 00 UTC al 24 a las 24 UTC
Viento 10 kt del sureste
Visibilidad 10 km o más
Escasas nubes a una altura de 4000 ft
Nubes dispersas a una altura de 8000 ft

TAF: SAME 232300Z 2400/2424 14010KT 9999 FEW040 SCT080 TN04/2410Z TX16/2420Z

Observaciones y pronósticos meteorológicos de más de 4000 aeropuertos (mensajes METAR y TAF).

Los puntos amarillos y rojos representan las estaciones disponibles.

Ponga el ratón en el punto deseado para ver el nombre de la estación.

Haga clic para ver las observaciones y los pronósticos meteorológicos.

Para cambiar el mapa : haga clic en los botones verdes con una cruz de color negro para hacer un zoom, en el botón verde con un guión para alejar o en las flechas verdes para mapas adyacentes.


METAR-TAF: